createdAt,value
2022-12-26T12:18:14.404Z,55.70
2022-12-26T12:21:00.768Z,55.24
2022-12-26T12:23:42.711Z,51.87
2022-12-26T12:26:14.939Z,49.89
2022-12-26T12:28:44.670Z,48.71
2022-12-26T12:31:10.908Z,47.39
2022-12-26T12:33:37.139Z,46.44
2022-12-26T12:36:07.411Z,46.02
2022-12-26T12:38:36.415Z,46.78
2022-12-26T12:41:06.525Z,46.60
2022-12-26T12:43:42.037Z,46.39
2022-12-26T12:46:14.631Z,45.66
2022-12-26T12:48:50.309Z,43.46
2022-12-26T12:51:23.421Z,44.30
2022-12-26T12:53:49.629Z,44.00
2022-12-26T12:56:35.801Z,44.35
2022-12-26T12:59:06.406Z,44.31
2022-12-26T13:01:33.663Z,43.80
2022-12-26T13:04:05.433Z,45.17
2022-12-26T13:06:39.230Z,45.41
2022-12-26T13:09:07.232Z,46.22
2022-12-26T13:11:38.167Z,47.07
2022-12-26T13:14:11.558Z,46.25
2022-12-26T13:16:43.415Z,46.57
2022-12-26T13:19:20.335Z,45.70
2022-12-26T13:21:46.697Z,46.15
2022-12-26T13:24:33.215Z,46.47
2022-12-26T13:27:03.191Z,47.18
2022-12-26T13:29:32.567Z,46.12
2022-12-26T13:31:59.016Z,46.09
2022-12-26T13:34:25.410Z,46.99
2022-12-26T13:36:55.606Z,45.51
2022-12-26T13:39:24.847Z,45.67
2022-12-26T13:42:09.868Z,46.99
2022-12-26T13:44:36.204Z,46.35
2022-12-26T13:47:02.537Z,47.05
2022-12-26T13:49:35.961Z,47.32
2022-12-26T13:52:11.449Z,46.22
2022-12-26T13:54:46.935Z,45.72
2022-12-26T13:57:22.366Z,46.23
2022-12-26T14:00:02.443Z,47.38
2022-12-26T14:02:58.149Z,47.45
2022-12-26T14:05:31.799Z,47.60
2022-12-26T14:08:04.156Z,48.15
2022-12-26T14:10:39.039Z,46.49
2022-12-26T14:13:33.557Z,46.86
2022-12-26T14:16:18.411Z,46.77
2022-12-26T14:18:49.683Z,47.08
2022-12-26T14:21:21.979Z,47.26
2022-12-26T14:23:53.405Z,47.16
2022-12-26T14:26:19.610Z,49.12
2022-12-26T14:29:04.599Z,49.05
2022-12-26T14:31:37.248Z,49.80
2022-12-26T14:34:10.359Z,48.60
2022-12-26T14:36:39.843Z,50.09
2022-12-26T14:39:11.927Z,49.89
2022-12-26T14:42:15.637Z,50.26
2022-12-26T14:44:42.064Z,49.35
2022-12-26T14:47:08.957Z,49.66
2022-12-26T14:49:36.243Z,50.36
2022-12-26T14:52:21.063Z,50.08
2022-12-26T14:54:51.086Z,50.23
2022-12-26T14:57:35.989Z,50.00
2022-12-26T15:00:15.972Z,49.64
2022-12-26T15:02:43.435Z,50.98
2022-12-26T15:05:35.945Z,52.08
2022-12-26T15:08:07.742Z,51.94
2022-12-26T15:10:42.840Z,52.29
2022-12-26T15:13:27.969Z,52.45
2022-12-26T15:15:54.262Z,52.65
2022-12-26T15:18:27.327Z,50.24
2022-12-26T15:21:12.389Z,52.05
2022-12-26T15:23:57.510Z,52.05
2022-12-26T15:26:32.976Z,53.99
2022-12-26T15:29:02.541Z,55.03
2022-12-26T15:31:28.838Z,55.06
2022-12-26T15:33:59.510Z,55.14
2022-12-26T15:36:29.344Z,55.61
2022-12-26T15:39:03.670Z,54.79
2022-12-26T15:41:39.346Z,53.87
2022-12-26T15:44:24.332Z,54.56
2022-12-26T15:46:56.760Z,55.75
2022-12-26T15:49:33.700Z,55.80
2022-12-26T15:52:12.326Z,54.94
2022-12-26T15:54:53.749Z,54.63
2022-12-26T15:57:28.671Z,55.83
2022-12-26T16:00:09.616Z,55.95
2022-12-26T16:02:54.691Z,56.09
2022-12-26T16:05:30.221Z,55.44
2022-12-26T16:08:14.958Z,54.70
2022-12-26T16:10:41.431Z,55.87
2022-12-26T16:13:13.573Z,56.26
2022-12-26T16:15:50.163Z,56.36
2022-12-26T16:18:25.819Z,56.36
2022-12-26T16:21:10.751Z,56.76
2022-12-26T16:23:37.771Z,56.53
2022-12-26T16:26:04.066Z,56.26
2022-12-26T16:28:38.188Z,55.85
2022-12-26T16:31:04.562Z,56.86
2022-12-26T16:33:31.649Z,57.41
2022-12-26T16:36:01.117Z,57.30
2022-12-26T16:38:29.396Z,56.37
2022-12-26T16:40:57.947Z,56.32
2022-12-26T16:43:28.191Z,56.25
2022-12-26T16:46:02.550Z,55.89
2022-12-26T16:48:29.479Z,55.87
2022-12-26T16:51:02.804Z,56.46
2022-12-26T16:53:35.245Z,57.06
2022-12-26T16:56:20.172Z,56.34
2022-12-26T16:58:46.459Z,57.25
2022-12-26T17:01:13.556Z,57.14
2022-12-26T17:03:42.989Z,57.17
2022-12-26T17:06:12.030Z,57.26
2022-12-26T17:08:42.331Z,56.61
2022-12-26T17:11:08.640Z,57.20
2022-12-26T17:13:34.917Z,57.44
2022-12-26T17:16:01.705Z,58.49
2022-12-26T17:18:31.172Z,56.90
2022-12-26T17:21:07.871Z,56.77
2022-12-26T17:23:37.977Z,56.79
2022-12-26T17:26:20.469Z,56.89
2022-12-26T17:28:46.754Z,58.79
2022-12-26T17:31:15.567Z,58.73
2022-12-26T17:33:47.663Z,59.09
2022-12-26T17:37:08.312Z,59.01
2022-12-26T17:39:12.585Z,58.97
2022-12-26T17:41:51.883Z,58.82
2022-12-26T17:44:35.396Z,60.40
2022-12-26T17:47:24.940Z,60.08
2022-12-26T17:49:51.622Z,60.23
2022-12-26T17:52:18.820Z,59.53
2022-12-26T17:54:45.188Z,59.44
2022-12-26T17:57:15.539Z,59.42
2022-12-26T17:59:41.823Z,58.85
2022-12-26T18:02:09.122Z,58.88
2022-12-26T18:04:35.486Z,59.19
2022-12-26T18:07:01.801Z,59.64
2022-12-26T18:09:28.081Z,59.33
2022-12-26T18:11:54.425Z,59.17
2022-12-26T18:14:20.884Z,59.97
2022-12-26T18:16:47.931Z,59.47
2022-12-26T18:19:14.424Z,59.80
2022-12-26T18:21:40.774Z,60.59
2022-12-26T18:24:07.077Z,63.09
2022-12-26T18:26:33.342Z,63.99
2022-12-26T18:28:59.616Z,62.51
2022-12-26T18:31:29.003Z,62.49
2022-12-26T18:33:55.355Z,63.70
2022-12-26T18:36:23.148Z,62.85
2022-12-26T18:38:49.444Z,61.22
2022-12-26T18:41:16.299Z,61.30
2022-12-26T18:43:42.661Z,62.07
2022-12-26T18:46:22.858Z,63.76
2022-12-26T18:48:49.245Z,64.14
2022-12-26T18:51:15.544Z,65.07
2022-12-26T18:53:41.888Z,65.57
2022-12-26T18:56:11.459Z,68.01
2022-12-26T18:58:37.732Z,66.26
2022-12-26T19:01:04.177Z,65.27
2022-12-26T19:03:30.524Z,64.18
2022-12-26T19:05:56.816Z,62.98
2022-12-26T19:08:23.138Z,63.63
2022-12-26T19:10:49.483Z,64.04
2022-12-26T19:13:15.780Z,64.21
2022-12-26T19:15:44.370Z,64.36
2022-12-26T19:18:10.893Z,65.13
2022-12-26T19:20:42.289Z,64.72
2022-12-26T19:23:10.511Z,63.93
2022-12-26T19:25:36.807Z,64.25
2022-12-26T19:28:03.096Z,63.20
2022-12-26T19:30:33.619Z,62.38
2022-12-26T19:33:03.188Z,63.22
2022-12-26T19:35:29.473Z,63.02
2022-12-26T19:37:55.754Z,62.88
2022-12-26T19:40:25.148Z,62.60
2022-12-26T19:42:51.672Z,62.41
2022-12-26T19:45:17.997Z,61.77
2022-12-26T19:47:44.287Z,62.46
2022-12-26T19:50:10.649Z,60.61
2022-12-26T19:52:38.190Z,60.80
2022-12-26T19:55:05.203Z,60.35
2022-12-26T19:57:31.542Z,59.15
2022-12-26T19:59:57.826Z,59.82
2022-12-26T20:02:24.278Z,58.64
2022-12-26T20:04:50.702Z,58.52
2022-12-26T20:07:17.053Z,58.68
2022-12-26T20:09:43.358Z,58.21
2022-12-26T20:12:09.668Z,58.32
2022-12-26T20:14:37.365Z,58.25
2022-12-26T20:17:06.803Z,58.68
2022-12-26T20:19:33.356Z,58.83
2022-12-26T20:21:59.661Z,59.38
2022-12-26T20:24:25.991Z,58.97
2022-12-26T20:26:52.273Z,60.57
2022-12-26T20:29:18.547Z,60.68
2022-12-26T20:31:44.904Z,60.97
2022-12-26T20:34:11.721Z,62.57
2022-12-26T20:36:38.414Z,61.79
2022-12-26T20:39:09.082Z,60.16
2022-12-26T20:41:35.366Z,60.41
2022-12-26T20:44:01.715Z,60.14
2022-12-26T20:46:29.599Z,59.76
2022-12-26T20:48:55.949Z,60.06
2022-12-26T20:51:23.230Z,60.42
2022-12-26T20:53:49.833Z,60.40
2022-12-26T20:56:16.133Z,59.93
2022-12-26T20:58:42.479Z,60.42
2022-12-26T21:01:10.497Z,60.24
2022-12-26T21:03:36.930Z,60.79
2022-12-26T21:06:10.152Z,60.02
2022-12-26T21:08:36.787Z,59.64
2022-12-26T21:11:32.574Z,59.74
2022-12-26T21:13:59.821Z,59.93
2022-12-26T21:16:27.220Z,60.00
2022-12-26T21:18:53.561Z,59.17
2022-12-26T21:21:22.591Z,59.43
2022-12-26T21:23:48.928Z,58.74
2022-12-26T21:26:15.214Z,58.17
2022-12-26T21:28:41.499Z,59.13
2022-12-26T21:31:08.326Z,59.17
2022-12-26T21:33:39.132Z,58.60
2022-12-26T21:36:09.736Z,57.81
2022-12-26T21:38:36.227Z,58.71
2022-12-26T21:41:02.507Z,58.58
2022-12-26T21:43:30.456Z,58.94
2022-12-26T21:46:01.261Z,60.60
2022-12-26T21:48:27.923Z,60.36
2022-12-26T21:50:54.345Z,59.81
2022-12-26T21:53:21.236Z,59.36
2022-12-26T21:55:47.499Z,59.44
2022-12-26T21:58:13.827Z,59.57
2022-12-26T22:00:40.338Z,59.16
2022-12-26T22:03:25.171Z,59.09
2022-12-26T22:05:51.496Z,59.28
2022-12-26T22:08:17.814Z,59.46
2022-12-26T22:11:03.455Z,59.23
2022-12-26T22:13:32.091Z,59.00
2022-12-26T22:16:04.525Z,58.07
2022-12-26T22:18:30.863Z,58.21
2022-12-26T22:21:00.754Z,57.71
2022-12-26T22:23:27.040Z,57.31
2022-12-26T22:25:56.461Z,58.19
2022-12-26T22:28:23.528Z,58.02
2022-12-26T22:30:50.056Z,58.76
2022-12-26T22:33:16.819Z,58.63
2022-12-26T22:35:43.154Z,57.59
2022-12-26T22:38:09.432Z,58.25
2022-12-26T22:40:35.766Z,57.42
2022-12-26T22:43:02.036Z,58.20
2022-12-26T22:45:28.325Z,57.93
2022-12-26T22:47:54.622Z,58.21
2022-12-26T22:50:20.969Z,58.26
2022-12-26T22:52:47.257Z,58.80
2022-12-26T22:55:13.551Z,59.05
2022-12-26T22:57:39.843Z,58.15
2022-12-26T23:00:09.127Z,59.35
2022-12-26T23:02:36.328Z,61.71
2022-12-26T23:05:02.879Z,61.48
2022-12-26T23:07:29.277Z,61.42
2022-12-26T23:09:55.597Z,60.75
2022-12-26T23:12:40.659Z,60.77
2022-12-26T23:15:07.199Z,61.07
2022-12-26T23:18:06.950Z,60.72
2022-12-26T23:20:53.240Z,59.56
2022-12-26T23:23:19.664Z,58.87
2022-12-26T23:25:45.962Z,58.22
2022-12-26T23:28:30.674Z,59.38
2022-12-26T23:30:56.990Z,59.74
2022-12-26T23:33:23.323Z,58.99
2022-12-26T23:35:49.604Z,58.90
2022-12-26T23:38:16.471Z,60.56
2022-12-26T23:40:42.751Z,60.31
2022-12-26T23:43:09.113Z,59.79
2022-12-26T23:45:35.378Z,59.30
2022-12-26T23:48:01.644Z,58.38
2022-12-26T23:50:27.955Z,58.35
2022-12-26T23:52:54.246Z,58.01
2022-12-26T23:55:20.601Z,57.68
2022-12-26T23:57:46.883Z,56.83
